createdAt,value
2023-01-23T00:01:40.056Z,11.33
2023-01-23T00:04:07.959Z,11.67
2023-01-23T00:06:35.887Z,10.53
2023-01-23T00:09:04.293Z,9.87
2023-01-23T00:11:34.087Z,10.77
2023-01-23T00:14:03.854Z,10.13
2023-01-23T00:16:33.571Z,12.03
2023-01-23T00:19:01.647Z,11.83
2023-01-23T00:21:31.157Z,11.90
2023-01-23T00:24:01.381Z,12.93
2023-01-23T00:26:32.615Z,11.77
2023-01-23T00:29:02.483Z,12.20
2023-01-23T00:31:37.106Z,11.73
2023-01-23T00:34:07.317Z,11.70
2023-01-23T00:36:36.677Z,10.83
2023-01-23T00:39:06.936Z,12.50
2023-01-23T00:41:35.210Z,11.80
2023-01-23T00:44:04.480Z,11.40
2023-01-23T00:46:32.352Z,11.30
2023-01-23T00:49:00.323Z,11.30
2023-01-23T00:51:28.307Z,10.93
2023-01-23T00:53:56.248Z,10.83
2023-01-23T00:56:24.227Z,12.27
2023-01-23T00:58:52.093Z,11.60
2023-01-23T01:01:22.622Z,11.87
2023-01-23T01:03:51.114Z,11.87
2023-01-23T01:06:18.887Z,11.30
2023-01-23T01:08:49.305Z,12.43
2023-01-23T01:11:17.178Z,11.90
2023-01-23T01:13:45.513Z,12.00
2023-01-23T01:16:13.949Z,12.00
2023-01-23T01:18:43.159Z,11.67
2023-01-23T01:21:13.610Z,11.03
2023-01-23T01:23:42.452Z,10.73
2023-01-23T01:26:10.984Z,8.50
2023-01-23T01:28:40.361Z,8.97
2023-01-23T01:31:11.133Z,9.47
2023-01-23T01:33:39.196Z,10.70
2023-01-23T01:36:11.309Z,10.73
2023-01-23T01:38:39.403Z,11.93
2023-01-23T01:41:08.069Z,11.57
2023-01-23T01:43:36.919Z,10.77
2023-01-23T01:46:14.976Z,11.20
2023-01-23T01:48:48.481Z,12.00
2023-01-23T01:51:24.023Z,10.40
2023-01-23T01:54:00.405Z,10.07
2023-01-23T01:56:30.128Z,11.80
2023-01-23T01:58:59.518Z,11.00
2023-01-23T02:01:28.198Z,10.87
2023-01-23T02:03:56.785Z,9.87
2023-01-23T02:06:26.907Z,9.53
2023-01-23T02:09:01.852Z,9.70
2023-01-23T02:11:29.828Z,10.00
2023-01-23T02:13:57.848Z,10.93
2023-01-23T02:16:29.770Z,10.83
2023-01-23T02:19:01.583Z,10.90
2023-01-23T02:21:30.938Z,10.00
2023-01-23T02:24:19.602Z,12.37
2023-01-23T02:26:48.914Z,11.07
2023-01-23T02:29:19.125Z,9.80
2023-01-23T02:31:47.378Z,10.60
2023-01-23T02:34:15.772Z,11.63
2023-01-23T02:36:48.913Z,9.53
2023-01-23T02:39:18.209Z,10.00
2023-01-23T02:41:49.665Z,11.47
2023-01-23T02:44:19.782Z,10.70
2023-01-23T02:46:47.699Z,11.30
2023-01-23T02:49:15.547Z,10.23
2023-01-23T02:51:43.352Z,11.93
2023-01-23T02:54:11.197Z,9.93
2023-01-23T02:56:39.018Z,11.27
2023-01-23T02:59:30.816Z,10.73
2023-01-23T03:01:58.921Z,11.73
2023-01-23T03:04:26.717Z,10.63
2023-01-23T03:06:54.576Z,10.83
2023-01-23T03:09:23.002Z,9.90
2023-01-23T03:11:52.117Z,10.90
2023-01-23T03:14:23.169Z,11.03
2023-01-23T03:16:53.561Z,11.30
2023-01-23T03:19:23.470Z,12.03
2023-01-23T03:21:51.901Z,10.80
2023-01-23T03:24:20.595Z,11.53
2023-01-23T03:26:50.068Z,11.00
2023-01-23T03:29:36.704Z,11.00
2023-01-23T03:32:06.701Z,10.83
2023-01-23T03:34:34.885Z,11.97
2023-01-23T03:37:03.414Z,11.53
2023-01-23T03:39:48.961Z,12.17
2023-01-23T03:42:17.111Z,12.20
2023-01-23T03:44:45.006Z,11.03
2023-01-23T03:47:14.145Z,10.60
2023-01-23T03:49:41.962Z,11.70
2023-01-23T03:52:09.822Z,12.60
2023-01-23T03:54:37.763Z,11.20
2023-01-23T03:57:05.658Z,10.83
2023-01-23T03:59:33.682Z,11.77
2023-01-23T04:02:04.790Z,11.10
2023-01-23T04:04:34.456Z,12.17
2023-01-23T04:07:03.082Z,11.70
2023-01-23T04:09:31.285Z,12.00
2023-01-23T04:12:00.330Z,12.90
2023-01-23T04:14:30.376Z,11.60
2023-01-23T04:16:59.237Z,11.90
2023-01-23T04:19:26.993Z,11.57
2023-01-23T04:21:56.122Z,11.50
2023-01-23T04:24:24.131Z,12.27
2023-01-23T04:26:52.180Z,12.00
2023-01-23T04:29:20.121Z,11.70
2023-01-23T04:31:48.089Z,12.40
2023-01-23T04:34:15.915Z,11.37
2023-01-23T04:36:43.817Z,11.37
2023-01-23T04:39:12.928Z,10.87
2023-01-23T04:41:40.722Z,12.10
2023-01-23T04:44:24.279Z,10.87
2023-01-23T04:46:54.157Z,12.10
2023-01-23T04:49:23.041Z,12.50
2023-01-23T04:51:51.738Z,11.90
2023-01-23T04:54:22.310Z,11.37
2023-01-23T04:56:50.317Z,11.30
2023-01-23T04:59:18.184Z,11.63
2023-01-23T05:01:46.391Z,11.40
2023-01-23T05:04:14.236Z,12.10
2023-01-23T05:06:42.093Z,11.40
2023-01-23T05:09:09.992Z,11.30
2023-01-23T05:11:39.127Z,11.43
2023-01-23T05:14:07.131Z,9.97
2023-01-23T05:16:35.025Z,11.37
2023-01-23T05:19:02.966Z,11.83
2023-01-23T05:21:30.920Z,11.17
2023-01-23T05:23:58.714Z,11.13
2023-01-23T05:26:26.574Z,11.60
2023-01-23T05:28:55.798Z,10.60
2023-01-23T05:31:23.790Z,11.47
2023-01-23T05:33:51.625Z,12.03
2023-01-23T05:36:19.402Z,12.77
2023-01-23T05:38:47.304Z,12.53
2023-01-23T05:41:15.172Z,10.70
2023-01-23T05:43:43.856Z,12.00
2023-01-23T05:46:13.046Z,12.27
2023-01-23T05:48:40.844Z,12.73
2023-01-23T05:51:08.837Z,11.70
2023-01-23T05:53:36.631Z,11.60
2023-01-23T05:56:07.373Z,10.90
2023-01-23T05:58:35.265Z,12.33
2023-01-23T06:01:03.480Z,11.13
2023-01-23T06:03:33.064Z,11.50
2023-01-23T06:06:02.122Z,11.50
2023-01-23T06:08:30.203Z,10.37
2023-01-23T06:10:59.374Z,10.93
2023-01-23T06:13:27.694Z,11.37
2023-01-23T06:15:55.802Z,11.13
2023-01-23T06:18:23.851Z,10.17
2023-01-23T06:20:58.878Z,9.80
2023-01-23T06:23:26.726Z,12.10
2023-01-23T06:25:54.562Z,10.80
2023-01-23T06:28:22.347Z,10.23
2023-01-23T06:30:50.416Z,12.30
2023-01-23T06:33:18.514Z,10.93
2023-01-23T06:35:46.393Z,12.10
2023-01-23T06:38:15.550Z,10.23
2023-01-23T06:40:44.552Z,12.77
2023-01-23T06:43:12.301Z,12.70
2023-01-23T06:45:40.113Z,12.60
2023-01-23T06:48:08.118Z,13.20
2023-01-23T06:50:35.869Z,13.40
2023-01-23T06:53:03.643Z,12.07
2023-01-23T06:55:32.837Z,10.70
2023-01-23T06:58:01.000Z,12.27
2023-01-23T07:00:28.996Z,13.20
2023-01-23T07:02:58.932Z,13.70
2023-01-23T07:05:26.773Z,14.63
2023-01-23T07:07:54.572Z,14.20
2023-01-23T07:10:22.965Z,14.47
2023-01-23T07:12:52.293Z,15.90
2023-01-23T07:15:20.064Z,15.10
2023-01-23T07:17:47.884Z,13.53
2023-01-23T07:20:15.759Z,14.27
2023-01-23T07:22:43.634Z,13.50
2023-01-23T07:25:11.490Z,13.40
2023-01-23T07:27:42.464Z,14.80
2023-01-23T07:30:13.150Z,14.87
2023-01-23T07:32:40.998Z,14.07
2023-01-23T07:35:10.220Z,14.10
2023-01-23T07:37:38.107Z,14.93
2023-01-23T07:40:06.879Z,17.63
2023-01-23T07:42:34.676Z,15.13
2023-01-23T07:45:02.499Z,12.80
2023-01-23T07:47:31.694Z,13.63
2023-01-23T07:49:59.415Z,13.00
2023-01-23T07:52:27.290Z,13.40
2023-01-23T07:54:55.126Z,13.03
2023-01-23T07:57:22.893Z,14.03
2023-01-23T07:59:50.652Z,14.40
2023-01-23T08:02:18.542Z,14.50
2023-01-23T08:04:47.693Z,13.80
2023-01-23T08:07:15.451Z,14.60
2023-01-23T08:09:43.282Z,14.83
2023-01-23T08:12:12.313Z,13.97
2023-01-23T08:14:40.754Z,12.50
2023-01-23T08:17:08.527Z,12.10
2023-01-23T08:19:36.282Z,12.70
2023-01-23T08:22:05.376Z,11.53
2023-01-23T08:24:33.229Z,12.73
2023-01-23T08:27:00.999Z,10.60
2023-01-23T08:29:28.754Z,10.20
2023-01-23T08:31:56.593Z,12.20
2023-01-23T08:34:24.896Z,12.50
2023-01-23T08:36:52.659Z,11.93
2023-01-23T08:39:21.858Z,10.53
2023-01-23T08:41:49.625Z,10.93
2023-01-23T08:44:17.382Z,11.27
2023-01-23T08:46:46.709Z,11.43
2023-01-23T08:49:14.600Z,11.17
2023-01-23T08:51:42.428Z,10.37
2023-01-23T08:54:10.159Z,9.30
2023-01-23T08:56:40.844Z,10.20
2023-01-23T08:59:09.010Z,11.30
2023-01-23T09:01:36.815Z,10.80
2023-01-23T09:04:04.793Z,11.13
2023-01-23T09:06:32.542Z,12.07
2023-01-23T09:09:00.320Z,10.43
2023-01-23T09:11:28.111Z,10.80
2023-01-23T09:13:57.853Z,12.60
2023-01-23T09:16:25.709Z,10.37
2023-01-23T09:18:55.312Z,10.20
2023-01-23T09:21:23.074Z,9.60
2023-01-23T09:23:50.821Z,11.10
2023-01-23T09:26:19.971Z,10.00
2023-01-23T09:28:47.913Z,10.70
2023-01-23T09:31:17.589Z,11.83
2023-01-23T09:33:45.524Z,10.17
2023-01-23T09:36:13.699Z,10.20
2023-01-23T09:38:41.509Z,10.90
2023-01-23T09:41:12.618Z,10.70
2023-01-23T09:43:46.321Z,9.40
2023-01-23T09:46:21.461Z,11.20
2023-01-23T09:48:53.710Z,12.30
2023-01-23T09:51:26.546Z,12.07
2023-01-23T09:53:58.147Z,11.77
2023-01-23T09:56:31.776Z,11.50
2023-01-23T09:59:04.989Z,12.23
2023-01-23T10:01:34.203Z,11.20
2023-01-23T10:04:03.060Z,10.53
2023-01-23T10:06:33.241Z,10.40
2023-01-23T10:09:27.275Z,11.00
2023-01-23T10:12:02.545Z,9.03
2023-01-23T10:15:03.165Z,11.07
2023-01-23T10:17:40.094Z,12.20
2023-01-23T10:20:33.018Z,9.73
2023-01-23T10:23:08.811Z,11.50
2023-01-23T10:25:40.875Z,12.50
2023-01-23T10:28:30.994Z,11.90
2023-01-23T10:31:02.132Z,12.00
2023-01-23T10:33:38.302Z,11.80
2023-01-23T10:36:23.712Z,13.13
2023-01-23T10:39:01.249Z,11.67
2023-01-23T10:41:29.071Z,9.40
2023-01-23T10:43:57.976Z,10.97
2023-01-23T10:46:32.669Z,8.90
2023-01-23T10:49:02.835Z,9.90
2023-01-23T10:51:36.418Z,11.53
2023-01-23T10:54:16.992Z,11.73
2023-01-23T10:56:58.121Z,10.93
2023-01-23T10:59:32.468Z,9.87
2023-01-23T11:02:20.200Z,10.27
2023-01-23T11:04:52.631Z,12.50
2023-01-23T11:07:22.744Z,10.57
2023-01-23T11:09:56.770Z,11.27
2023-01-23T11:12:26.194Z,11.60
2023-01-23T11:15:13.396Z,12.13
2023-01-23T11:17:43.429Z,11.73
2023-01-23T11:20:26.392Z,10.50
2023-01-23T11:23:03.727Z,10.83
2023-01-23T11:25:33.478Z,10.67
2023-01-23T11:28:03.089Z,10.77
2023-01-23T11:30:45.699Z,10.50
2023-01-23T11:33:18.070Z,12.60
2023-01-23T11:35:55.716Z,9.43
2023-01-23T11:38:30.876Z,11.37
2023-01-23T11:40:59.389Z,11.23
2023-01-23T11:43:27.379Z,9.50
2023-01-23T11:46:09.268Z,10.70
2023-01-23T11:48:50.424Z,11.90
2023-01-23T11:51:24.280Z,10.47
2023-01-23T11:54:04.597Z,10.67
2023-01-23T11:56:57.121Z,9.80
2023-01-23T11:59:52.953Z,11.60
2023-01-23T12:02:58.516Z,10.77
2023-01-23T12:06:19.660Z,12.30
2023-01-23T12:08:57.387Z,8.90
2023-01-23T12:11:27.684Z,11.37
2023-01-23T12:14:05.117Z,10.43
2023-01-23T12:16:47.971Z,10.30
2023-01-23T12:19:28.406Z,10.77
2023-01-23T12:22:03.473Z,10.90
2023-01-23T12:24:49.072Z,11.80
2023-01-23T12:27:22.586Z,10.30
2023-01-23T12:30:13.518Z,10.60
2023-01-23T12:32:55.334Z,9.13
2023-01-23T12:35:36.664Z,9.37
2023-01-23T12:38:30.090Z,12.30
2023-01-23T12:41:16.041Z,11.60
2023-01-23T12:43:51.860Z,10.73
2023-01-23T12:46:25.966Z,10.20
2023-01-23T12:49:00.926Z,9.33
2023-01-23T12:51:34.878Z,9.13
2023-01-23T12:54:07.638Z,9.87
2023-01-23T12:56:39.665Z,9.10
2023-01-23T12:59:14.054Z,9.90
2023-01-23T13:01:56.788Z,11.60
2023-01-23T13:04:38.035Z,9.80
2023-01-23T13:07:21.893Z,9.63
2023-01-23T13:10:06.429Z,8.60
2023-01-23T13:12:35.886Z,9.43
2023-01-23T13:15:38.799Z,9.83
2023-01-23T13:18:23.340Z,9.90
2023-01-23T13:21:16.187Z,9.47
2023-01-23T13:23:44.147Z,11.67
2023-01-23T13:26:36.192Z,9.57
2023-01-23T13:29:07.485Z,10.70
2023-01-23T13:31:40.015Z,8.60
2023-01-23T13:34:39.450Z,10.43
2023-01-23T13:37:55.417Z,9.33
2023-01-23T13:40:24.954Z,10.17
2023-01-23T13:42:52.886Z,9.17
2023-01-23T13:45:35.743Z,9.83
2023-01-23T14:20:20.007Z,9.50
2023-01-23T14:22:48.116Z,9.27
2023-01-23T14:25:18.298Z,9.47
2023-01-23T14:27:54.702Z,10.70
2023-01-23T14:30:26.510Z,10.07
2023-01-23T14:32:56.379Z,9.97
2023-01-23T14:35:27.211Z,10.87
2023-01-23T14:38:04.035Z,11.50
2023-01-23T14:40:46.667Z,9.50
2023-01-23T14:43:19.709Z,8.00
2023-01-23T14:45:50.501Z,10.97
2023-01-23T14:48:22.401Z,10.40
2023-01-23T14:50:50.254Z,8.60
2023-01-23T14:53:18.474Z,10.10
2023-01-23T14:55:49.586Z,10.40
2023-01-23T14:58:23.479Z,9.80
2023-01-23T15:00:54.333Z,11.10
2023-01-23T15:03:44.410Z,11.67
2023-01-23T15:06:15.735Z,10.27
2023-01-23T15:08:43.724Z,10.07
2023-01-23T15:11:14.704Z,9.23
2023-01-23T15:13:46.638Z,10.20
2023-01-23T15:16:18.204Z,10.17
2023-01-23T15:18:58.464Z,10.03
2023-01-23T15:21:29.372Z,10.67
2023-01-23T15:24:18.346Z,9.73
2023-01-23T15:27:04.450Z,10.63
2023-01-23T15:29:33.425Z,10.17
2023-01-23T15:32:01.924Z,9.90
2023-01-23T15:34:33.546Z,10.67
2023-01-23T15:37:08.494Z,10.30
2023-01-23T15:39:39.648Z,9.03
2023-01-23T15:42:27.425Z,10.53
2023-01-23T15:44:55.565Z,8.93
2023-01-23T15:47:23.330Z,10.93
2023-01-23T15:49:52.460Z,10.67
2023-01-23T15:52:23.215Z,10.43
2023-01-23T15:54:53.676Z,14.93
2023-01-23T15:57:21.599Z,11.77
2023-01-23T15:59:49.397Z,11.13
2023-01-23T16:02:29.944Z,11.93
2023-01-23T16:05:00.998Z,13.70
2023-01-23T16:07:34.174Z,12.07
2023-01-23T16:10:03.686Z,12.67
2023-01-23T16:12:32.681Z,11.67
2023-01-23T16:15:00.462Z,12.73
2023-01-23T16:17:28.225Z,14.40
2023-01-23T16:19:55.980Z,14.67
2023-01-23T16:22:29.037Z,10.70
2023-01-23T16:24:58.044Z,12.20
2023-01-23T16:27:27.390Z,12.23
2023-01-23T16:29:56.314Z,11.77
2023-01-23T16:32:24.944Z,12.00
2023-01-23T16:34:52.868Z,12.27
2023-01-23T16:37:20.716Z,13.60
2023-01-23T16:39:49.844Z,10.10
2023-01-23T16:42:23.115Z,11.43
2023-01-23T16:44:51.364Z,13.23
2023-01-23T16:47:19.252Z,13.23
2023-01-23T16:49:52.595Z,12.43
2023-01-23T16:52:22.249Z,10.77
2023-01-23T16:54:53.015Z,11.93
2023-01-23T16:57:21.990Z,11.97
2023-01-23T16:59:50.807Z,11.07
2023-01-23T17:02:23.338Z,12.97
2023-01-23T17:04:51.303Z,11.80
2023-01-23T17:07:20.302Z,11.67
2023-01-23T17:09:49.161Z,12.23
2023-01-23T17:12:23.023Z,14.27
2023-01-23T17:14:52.357Z,13.63
2023-01-23T17:17:27.692Z,12.63
2023-01-23T17:19:55.689Z,12.83
2023-01-23T17:22:25.907Z,12.90
2023-01-23T17:24:54.008Z,13.43
2023-01-23T17:27:23.393Z,13.30
2023-01-23T17:29:51.153Z,14.97
2023-01-23T17:32:27.745Z,12.93
2023-01-23T17:34:55.744Z,13.63
2023-01-23T17:37:24.341Z,13.20
2023-01-23T17:39:52.304Z,13.43
2023-01-23T17:42:21.774Z,12.73
2023-01-23T17:44:51.054Z,15.63
2023-01-23T17:47:19.318Z,16.57
2023-01-23T17:49:51.388Z,14.03
2023-01-23T17:52:21.577Z,15.67
2023-01-23T17:54:49.552Z,13.67
2023-01-23T17:57:17.281Z,15.40
2023-01-23T17:59:45.166Z,14.40
2023-01-23T18:02:27.322Z,16.60
2023-01-23T18:04:55.301Z,15.57
2023-01-23T18:07:23.197Z,12.60
2023-01-23T18:09:52.295Z,16.60
2023-01-23T18:12:29.614Z,12.80
2023-01-23T18:15:06.284Z,12.97
2023-01-23T18:17:44.645Z,15.13
2023-01-23T18:20:20.576Z,12.50
2023-01-23T18:22:49.151Z,15.80
2023-01-23T18:25:19.308Z,16.60
2023-01-23T18:27:50.801Z,13.57
2023-01-23T18:30:24.899Z,12.10
2023-01-23T18:33:12.023Z,14.97
2023-01-23T18:35:59.209Z,15.73
2023-01-23T18:38:34.174Z,13.90
2023-01-23T18:41:11.213Z,14.77
2023-01-23T18:43:40.781Z,17.30
2023-01-23T18:46:13.223Z,15.50
2023-01-23T18:48:44.940Z,14.70
2023-01-23T18:51:25.107Z,13.23
2023-01-23T18:53:59.822Z,16.20
2023-01-23T18:56:35.305Z,14.83
2023-01-23T18:59:14.165Z,14.43
2023-01-23T19:01:51.969Z,13.70
2023-01-23T19:04:30.382Z,15.67
2023-01-23T19:06:58.929Z,15.97
2023-01-23T19:09:28.305Z,16.57
2023-01-23T19:12:24.210Z,14.93
2023-01-23T19:15:07.620Z,14.70
2023-01-23T19:17:44.284Z,17.10
2023-01-23T19:20:23.336Z,17.07
2023-01-23T19:23:02.581Z,17.43
2023-01-23T19:25:30.836Z,17.87
2023-01-23T19:28:00.704Z,14.67
2023-01-23T19:30:29.131Z,17.30
2023-01-23T19:32:56.905Z,15.37
2023-01-23T19:35:26.223Z,17.50
2023-01-23T19:37:53.949Z,16.47
2023-01-23T19:40:21.864Z,15.60
2023-01-23T19:42:58.656Z,14.23
2023-01-23T19:45:33.861Z,15.93
2023-01-23T19:48:01.653Z,15.10
2023-01-23T19:50:30.919Z,15.13
2023-01-23T19:53:00.119Z,14.17
2023-01-23T19:55:30.379Z,15.23
2023-01-23T19:57:58.714Z,16.67
2023-01-23T20:00:27.774Z,16.30
2023-01-23T20:02:55.544Z,14.77
2023-01-23T20:05:23.910Z,14.43
2023-01-23T20:07:53.993Z,15.23
2023-01-23T20:10:22.300Z,13.50
2023-01-23T20:12:52.486Z,17.40
2023-01-23T20:15:21.946Z,15.77
2023-01-23T20:17:50.355Z,15.40
2023-01-23T20:20:19.442Z,16.47
2023-01-23T20:22:47.250Z,16.27
2023-01-23T20:25:17.815Z,16.63
2023-01-23T20:27:46.002Z,16.90
2023-01-23T20:30:16.576Z,15.47
2023-01-23T20:32:44.777Z,15.20
2023-01-23T20:35:12.958Z,12.73
2023-01-23T20:37:40.733Z,14.80
2023-01-23T20:40:11.294Z,15.73
2023-01-23T20:42:41.232Z,15.37
2023-01-23T20:45:09.818Z,16.70
2023-01-23T20:47:38.604Z,17.60
2023-01-23T20:50:07.046Z,15.10
2023-01-23T20:52:52.259Z,14.83
2023-01-23T20:55:20.512Z,14.83
2023-01-23T20:58:07.416Z,15.33
2023-01-23T21:00:35.170Z,12.30
2023-01-23T21:03:03.039Z,15.37
2023-01-23T21:05:30.842Z,13.90
2023-01-23T21:07:58.687Z,14.90
2023-01-23T21:10:26.651Z,14.53
2023-01-23T21:12:55.835Z,15.20
2023-01-23T21:15:24.032Z,15.10
2023-01-23T21:17:51.941Z,15.70
2023-01-23T21:20:20.036Z,13.53
2023-01-23T21:22:47.998Z,14.10
2023-01-23T21:25:15.935Z,13.47
2023-01-23T21:27:43.692Z,15.00
2023-01-23T21:30:13.759Z,15.03
2023-01-23T21:32:41.697Z,16.20
2023-01-23T21:35:09.800Z,13.73
2023-01-23T21:37:38.057Z,14.63
2023-01-23T21:40:07.193Z,15.30
2023-01-23T21:42:34.987Z,13.63
2023-01-23T21:45:02.748Z,14.37
2023-01-23T21:47:31.900Z,15.53
2023-01-23T21:49:59.758Z,15.67
2023-01-23T21:52:29.530Z,14.47
2023-01-23T21:54:57.874Z,12.70
2023-01-23T21:57:25.664Z,16.37
2023-01-23T22:00:07.433Z,15.07
2023-01-23T22:02:36.577Z,13.33
2023-01-23T22:05:04.488Z,12.87
2023-01-23T22:07:32.378Z,13.77
2023-01-23T22:10:00.203Z,14.23
2023-01-23T22:12:28.812Z,14.53
2023-01-23T22:14:56.737Z,15.33
2023-01-23T22:17:24.784Z,15.70
2023-01-23T22:19:53.985Z,13.83
2023-01-23T22:22:21.752Z,14.30
2023-01-23T22:24:49.581Z,17.40
2023-01-23T22:27:17.374Z,15.27
2023-01-23T22:29:45.261Z,16.67
2023-01-23T22:32:13.120Z,15.03
2023-01-23T22:34:40.897Z,15.40
2023-01-23T22:37:10.033Z,12.73
2023-01-23T22:39:37.802Z,16.30
2023-01-23T22:42:05.881Z,16.03
2023-01-23T22:44:33.690Z,16.30
2023-01-23T22:47:01.516Z,16.57
2023-01-23T22:49:29.381Z,15.17
2023-01-23T22:51:57.209Z,15.33
2023-01-23T22:54:26.428Z,14.47
2023-01-23T22:56:54.193Z,15.43
2023-01-23T23:01:57.320Z,16.73
2023-01-23T23:04:25.015Z,14.33
2023-01-23T23:06:52.825Z,16.27
2023-01-23T23:09:20.574Z,19.80
2023-01-23T23:11:51.663Z,16.30
2023-01-23T23:14:19.616Z,16.33
2023-01-23T23:16:47.386Z,16.67
2023-01-23T23:19:15.209Z,16.00
2023-01-23T23:21:42.974Z,16.23
2023-01-23T23:24:13.935Z,17.17
2023-01-23T23:26:42.082Z,15.30
2023-01-23T23:29:11.229Z,17.80
2023-01-23T23:31:39.161Z,18.73
2023-01-23T23:34:07.078Z,15.17
2023-01-23T23:36:35.109Z,16.03
2023-01-23T23:39:03.187Z,15.17
2023-01-23T23:41:30.995Z,14.83
2023-01-23T23:43:58.781Z,18.00
2023-01-23T23:46:28.334Z,16.20
2023-01-23T23:48:56.211Z,17.10
2023-01-23T23:51:26.422Z,17.50
2023-01-23T23:53:55.477Z,15.23
2023-01-23T23:56:24.647Z,15.40
2023-01-23T23:58:52.629Z,17.10
